createdAt,value
2023-11-24T00:01:21.037Z,5.71
2023-11-24T00:04:23.335Z,6.22
2023-11-24T00:07:26.250Z,5.28
2023-11-24T00:10:30.066Z,5.86
2023-11-24T00:13:32.264Z,6.17
2023-11-24T00:16:34.629Z,6.65
2023-11-24T00:19:36.792Z,6.40
2023-11-24T00:22:39.223Z,5.58
2023-11-24T00:25:41.381Z,5.49
2023-11-24T00:28:43.488Z,5.81
2023-11-24T00:31:47.088Z,5.31
2023-11-24T00:34:49.563Z,5.56
2023-11-24T00:37:51.671Z,5.41
2023-11-24T00:40:54.184Z,5.89
2023-11-24T00:43:56.261Z,5.91
2023-11-24T00:46:58.406Z,6.56
2023-11-24T00:50:00.749Z,6.65
2023-11-24T00:53:03.028Z,6.73
2023-11-24T00:56:05.257Z,6.39
2023-11-24T00:59:07.428Z,6.29
2023-11-24T01:02:09.598Z,6.37
2023-11-24T01:05:11.727Z,6.40
2023-11-24T01:08:13.938Z,6.42
2023-11-24T01:11:16.028Z,6.28
2023-11-24T01:14:18.237Z,6.11
2023-11-24T01:17:22.253Z,6.48
2023-11-24T01:20:26.468Z,6.77
2023-11-24T01:23:28.534Z,6.72
2023-11-24T01:26:30.907Z,5.96
2023-11-24T01:29:33.106Z,5.61
2023-11-24T01:32:35.353Z,5.61
2023-11-24T01:35:37.476Z,5.35
2023-11-24T01:38:39.828Z,4.86
2023-11-24T01:41:41.964Z,5.26
2023-11-24T01:44:44.093Z,6.32
2023-11-24T01:47:48.303Z,5.64
2023-11-24T01:50:50.478Z,5.76
2023-11-24T01:53:52.709Z,5.62
2023-11-24T01:56:54.925Z,4.96
2023-11-24T01:59:57.049Z,5.95
2023-11-24T02:02:59.309Z,5.44
2023-11-24T02:06:02.076Z,5.15
2023-11-24T02:09:04.417Z,5.04
2023-11-24T02:12:06.630Z,5.14
2023-11-24T02:15:08.941Z,5.26
2023-11-24T02:18:11.286Z,5.13
2023-11-24T02:21:13.453Z,5.60
2023-11-24T02:24:15.625Z,5.38
2023-11-24T02:27:21.706Z,4.50
2023-11-24T02:30:23.962Z,4.27
2023-11-24T02:33:26.129Z,3.93
2023-11-24T02:36:31.715Z,3.98
2023-11-24T02:39:33.934Z,4.20
2023-11-24T02:42:36.603Z,3.95
2023-11-24T02:45:38.804Z,4.06
2023-11-24T02:48:41.422Z,4.19
2023-11-24T02:51:43.697Z,4.38
2023-11-24T02:54:45.805Z,4.07
2023-11-24T02:57:48.892Z,4.55
2023-11-24T03:00:51.090Z,4.86
2023-11-24T03:03:53.652Z,4.65
2023-11-24T03:06:55.933Z,4.76
2023-11-24T03:09:58.164Z,5.45
2023-11-24T03:13:00.489Z,6.00
2023-11-24T03:16:03.303Z,5.81
2023-11-24T03:19:05.578Z,5.68
2023-11-24T03:22:08.536Z,5.79
2023-11-24T03:25:11.663Z,5.31
2023-11-24T03:28:14.334Z,4.67
2023-11-24T03:31:16.420Z,4.42
2023-11-24T03:34:18.604Z,4.85
2023-11-24T03:37:20.806Z,4.73
2023-11-24T03:40:23.025Z,5.37
2023-11-24T03:43:25.117Z,5.13
2023-11-24T03:46:27.235Z,4.92
2023-11-24T03:49:29.446Z,4.85
2023-11-24T03:52:31.585Z,4.80
2023-11-24T03:55:33.722Z,4.54
2023-11-24T03:58:36.109Z,4.50
2023-11-24T04:01:38.414Z,4.14
2023-11-24T04:04:40.671Z,4.13
2023-11-24T04:07:42.786Z,4.20
2023-11-24T04:10:44.947Z,4.42
2023-11-24T04:13:47.068Z,4.40
2023-11-24T04:16:49.245Z,4.42
2023-11-24T04:19:51.387Z,4.14
2023-11-24T04:22:53.511Z,3.88
2023-11-24T04:25:55.623Z,4.18
2023-11-24T04:28:58.719Z,4.11
2023-11-24T04:32:00.929Z,3.96
2023-11-24T04:35:03.129Z,3.92
2023-11-24T04:38:05.286Z,4.20
2023-11-24T04:41:07.988Z,4.44
2023-11-24T04:44:10.541Z,4.45
2023-11-24T04:47:12.645Z,4.61
2023-11-24T04:50:15.842Z,4.92
2023-11-24T04:53:18.218Z,4.92
2023-11-24T04:56:20.431Z,4.98
2023-11-24T04:59:23.155Z,5.05
2023-11-24T05:02:25.402Z,5.18
2023-11-24T05:05:27.531Z,4.62
2023-11-24T05:08:29.609Z,4.57
2023-11-24T05:11:31.714Z,3.98
2023-11-24T05:14:33.895Z,3.95
2023-11-24T05:17:40.064Z,3.91
2023-11-24T05:20:42.250Z,4.49
2023-11-24T05:23:44.485Z,4.48
2023-11-24T05:26:47.656Z,4.59
2023-11-24T05:29:50.802Z,4.82
2023-11-24T05:32:53.086Z,4.92
2023-11-24T05:35:57.789Z,5.04
2023-11-24T05:39:00.409Z,4.93
2023-11-24T05:42:02.656Z,5.07
2023-11-24T05:45:05.081Z,5.23
2023-11-24T05:48:07.556Z,5.15
2023-11-24T05:51:09.775Z,5.36
2023-11-24T05:54:13.816Z,5.65
2023-11-24T05:57:16.670Z,5.33
2023-11-24T06:00:19.905Z,5.21
2023-11-24T06:03:22.018Z,5.40
2023-11-24T06:06:23.885Z,5.39
2023-11-24T06:09:25.960Z,5.39
2023-11-24T06:12:30.207Z,4.83
2023-11-24T06:15:32.245Z,5.19
2023-11-24T06:18:34.404Z,5.43
2023-11-24T06:21:37.321Z,5.57
2023-11-24T06:24:39.340Z,5.75
2023-11-24T06:27:41.269Z,5.71
2023-11-24T06:30:43.539Z,5.93
2023-11-24T06:33:45.767Z,5.86
2023-11-24T06:36:47.885Z,6.60
2023-11-24T06:39:50.183Z,6.62
2023-11-24T06:42:52.168Z,6.55
2023-11-24T06:45:54.145Z,6.33
2023-11-24T06:48:56.211Z,6.20
2023-11-24T06:51:58.260Z,6.19
2023-11-24T06:55:00.451Z,6.12
2023-11-24T06:58:02.441Z,6.24
2023-11-24T07:01:06.110Z,5.99
2023-11-24T07:04:08.526Z,6.26
2023-11-24T07:07:10.532Z,6.21
2023-11-24T07:10:14.584Z,6.15
2023-11-24T07:13:17.027Z,6.57
2023-11-24T07:16:19.132Z,6.34
2023-11-24T07:19:23.136Z,5.78
2023-11-24T07:22:26.137Z,6.66
2023-11-24T07:25:28.111Z,7.07
2023-11-24T07:28:29.959Z,6.68
2023-11-24T07:31:32.008Z,6.85
2023-11-24T07:34:34.249Z,7.16
2023-11-24T07:37:36.304Z,6.51
2023-11-24T07:40:38.250Z,6.31
2023-11-24T07:43:40.370Z,7.53
2023-11-24T07:46:42.430Z,7.66
2023-11-24T07:49:44.473Z,7.03
2023-11-24T07:52:47.861Z,7.91
2023-11-24T07:55:50.492Z,7.43
2023-11-24T07:58:52.575Z,8.29
2023-11-24T08:01:54.579Z,8.96
2023-11-24T08:04:56.601Z,9.13
2023-11-24T08:07:59.430Z,8.58
2023-11-24T08:11:01.336Z,8.76
2023-11-24T08:14:06.194Z,8.66
2023-11-24T08:17:08.164Z,8.72
2023-11-24T08:20:11.879Z,9.04
2023-11-24T08:23:16.750Z,9.10
2023-11-24T08:26:19.259Z,8.59
2023-11-24T08:29:21.198Z,9.01
2023-11-24T08:32:23.128Z,8.72
2023-11-24T08:35:26.612Z,9.08
2023-11-24T08:38:28.542Z,8.97
2023-11-24T08:41:38.080Z,8.56
2023-11-24T08:44:43.034Z,8.97
2023-11-24T08:47:45.141Z,8.68
2023-11-24T08:50:47.425Z,8.85
2023-11-24T08:53:49.581Z,9.33
2023-11-24T08:56:51.984Z,9.43
2023-11-24T08:59:57.421Z,9.47
2023-11-24T09:03:00.891Z,9.36
2023-11-24T09:06:03.881Z,8.94
2023-11-24T09:09:08.983Z,9.50
2023-11-24T09:12:11.733Z,9.73
2023-11-24T09:15:13.966Z,9.51
2023-11-24T09:18:16.017Z,9.99
2023-11-24T09:21:19.439Z,10.57
2023-11-24T09:24:21.939Z,11.18
2023-11-24T09:27:23.917Z,10.01
2023-11-24T09:30:25.978Z,10.09
2023-11-24T09:33:28.028Z,10.02
2023-11-24T09:36:29.984Z,10.25
2023-11-24T09:39:31.929Z,10.61
2023-11-24T09:42:39.174Z,10.60
2023-11-24T09:45:41.136Z,10.08
2023-11-24T09:48:46.217Z,10.43
2023-11-24T09:51:48.249Z,10.94
2023-11-24T09:54:50.228Z,10.21
2023-11-24T09:57:52.328Z,10.57
2023-11-24T10:01:06.938Z,9.84
2023-11-24T10:04:10.509Z,10.52
2023-11-24T10:07:18.308Z,10.18
2023-11-24T10:10:26.073Z,9.99
2023-11-24T10:13:28.405Z,10.13
2023-11-24T10:16:31.624Z,10.25
2023-11-24T10:19:33.843Z,10.64
2023-11-24T10:22:35.831Z,11.93
2023-11-24T10:25:37.848Z,11.00
2023-11-24T10:28:40.023Z,11.04
2023-11-24T10:31:41.942Z,11.06
2023-11-24T10:34:44.820Z,10.87
2023-11-24T10:37:46.895Z,9.57
2023-11-24T10:40:50.532Z,9.43
2023-11-24T10:43:52.841Z,9.28
2023-11-24T10:46:54.805Z,10.26
2023-11-24T10:50:04.457Z,10.25
2023-11-24T10:53:10.144Z,10.47
2023-11-24T10:56:12.181Z,10.61
2023-11-24T10:59:15.162Z,10.51
2023-11-24T11:02:18.153Z,10.27
2023-11-24T11:05:20.381Z,10.11
2023-11-24T11:08:29.642Z,10.93
2023-11-24T11:11:41.194Z,10.89
2023-11-24T11:14:43.305Z,9.05
2023-11-24T11:17:49.030Z,9.22
2023-11-24T11:20:51.989Z,8.98
2023-11-24T11:23:57.457Z,9.02
2023-11-24T11:26:59.607Z,9.23
2023-11-24T11:30:01.722Z,9.12
2023-11-24T11:33:04.692Z,8.45
2023-11-24T11:36:07.084Z,8.82
2023-11-24T11:39:10.529Z,8.45
2023-11-24T11:42:12.520Z,8.53
2023-11-24T11:45:19.747Z,8.27
2023-11-24T11:48:21.900Z,8.58
2023-11-24T11:51:23.895Z,8.83
2023-11-24T11:54:25.849Z,8.40
2023-11-24T11:57:29.243Z,8.40
2023-11-24T12:00:31.495Z,8.65
2023-11-24T12:03:33.878Z,8.62
2023-11-24T12:06:35.906Z,8.41
2023-11-24T12:09:38.362Z,7.88
2023-11-24T12:12:41.546Z,8.20
2023-11-24T12:15:44.006Z,8.54
2023-11-24T12:18:51.364Z,8.62
2023-11-24T12:21:53.406Z,8.60
2023-11-24T12:24:55.540Z,8.39
2023-11-24T12:27:58.068Z,8.76
2023-11-24T12:31:02.745Z,8.32
2023-11-24T12:34:05.638Z,8.35
2023-11-24T12:37:08.196Z,8.64
2023-11-24T12:40:13.438Z,8.61
2023-11-24T12:43:15.773Z,8.28
2023-11-24T12:46:21.712Z,8.40
2023-11-24T12:49:24.054Z,9.01
2023-11-24T12:52:25.943Z,8.29
2023-11-24T12:55:27.868Z,8.49
2023-11-24T12:58:30.487Z,8.50
2023-11-24T13:01:33.355Z,8.29
2023-11-24T13:04:35.428Z,8.38
2023-11-24T13:07:38.044Z,8.94
2023-11-24T13:10:41.820Z,8.71
2023-11-24T13:13:45.045Z,8.09
2023-11-24T13:16:49.929Z,9.04
2023-11-24T13:19:53.519Z,8.99
2023-11-24T13:22:55.625Z,9.14
2023-11-24T13:25:58.354Z,9.48
2023-11-24T13:29:00.342Z,9.47
2023-11-24T13:32:03.330Z,9.39
2023-11-24T13:35:05.984Z,9.30
2023-11-24T13:38:08.088Z,9.40
2023-11-24T13:41:11.381Z,9.35
2023-11-24T13:44:13.915Z,9.45
2023-11-24T13:47:15.888Z,9.59
2023-11-24T13:50:20.001Z,9.53
2023-11-24T13:53:22.079Z,9.57
2023-11-24T13:56:25.800Z,9.76
2023-11-24T13:59:27.992Z,9.96
2023-11-24T14:02:30.069Z,9.83
2023-11-24T14:05:32.123Z,9.68
2023-11-24T14:08:37.104Z,9.38
2023-11-24T14:11:39.515Z,9.95
2023-11-24T14:14:41.681Z,9.17
2023-11-24T14:17:43.890Z,9.25
2023-11-24T14:20:48.664Z,9.40
2023-11-24T14:23:50.544Z,9.11
2023-11-24T14:26:52.566Z,9.18
2023-11-24T14:29:54.936Z,9.66
2023-11-24T14:32:59.154Z,9.74
2023-11-24T14:36:01.824Z,9.14
2023-11-24T14:39:04.661Z,8.79
2023-11-24T14:42:06.673Z,9.49
2023-11-24T14:45:10.215Z,9.55
2023-11-24T14:48:12.233Z,9.61
2023-11-24T14:51:14.219Z,9.67
2023-11-24T14:54:17.169Z,8.99
2023-11-24T14:57:21.565Z,8.76
2023-11-24T15:00:41.499Z,8.43
2023-11-24T15:03:45.571Z,9.12
2023-11-24T15:06:51.933Z,8.98
2023-11-24T15:09:54.598Z,8.35
2023-11-24T15:12:56.520Z,8.89
2023-11-24T15:15:59.957Z,8.64
2023-11-24T15:19:02.008Z,8.37
2023-11-24T15:22:10.125Z,8.77
2023-11-24T15:25:14.369Z,8.67
2023-11-24T15:28:22.296Z,9.09
2023-11-24T15:31:28.155Z,8.28
2023-11-24T15:34:30.349Z,9.40
2023-11-24T15:37:32.329Z,9.58
2023-11-24T15:40:34.239Z,8.11
2023-11-24T15:43:36.129Z,8.34
2023-11-24T15:46:39.745Z,8.34
2023-11-24T15:49:42.891Z,9.33
2023-11-24T15:52:45.441Z,8.99
2023-11-24T15:55:48.054Z,9.36
2023-11-24T15:58:52.773Z,9.06
2023-11-24T16:01:58.545Z,9.58
2023-11-24T16:05:02.558Z,9.64
2023-11-24T16:08:09.040Z,9.46
2023-11-24T16:11:11.820Z,8.85
2023-11-24T16:14:14.215Z,8.75
2023-11-24T16:17:16.234Z,9.78
2023-11-24T16:20:18.639Z,8.99
2023-11-24T16:23:21.662Z,7.96
2023-11-24T16:26:24.632Z,8.45
2023-11-24T16:29:26.466Z,7.74
2023-11-24T16:32:29.065Z,7.82
2023-11-24T16:35:31.051Z,8.13
2023-11-24T16:38:35.834Z,8.07
2023-11-24T16:41:38.365Z,7.78
2023-11-24T16:44:40.544Z,8.27
2023-11-24T16:47:43.946Z,8.80
2023-11-24T16:50:47.356Z,8.64
2023-11-24T16:53:49.606Z,8.82
2023-11-24T16:56:51.620Z,8.89
2023-11-24T16:59:54.246Z,8.51
2023-11-24T17:02:56.476Z,8.71
2023-11-24T17:05:58.825Z,8.82
2023-11-24T17:09:00.964Z,8.79
2023-11-24T17:12:03.114Z,9.03
2023-11-24T17:15:06.220Z,8.24
2023-11-24T17:18:10.726Z,8.72
2023-11-24T17:21:13.863Z,8.52
2023-11-24T17:24:16.824Z,8.73
2023-11-24T17:27:19.030Z,8.58
2023-11-24T17:30:23.767Z,8.90
2023-11-24T17:33:25.986Z,8.98
2023-11-24T17:36:28.156Z,8.09
2023-11-24T17:39:30.251Z,7.44
2023-11-24T17:42:32.480Z,7.80
2023-11-24T17:45:35.675Z,7.40
2023-11-24T17:48:37.877Z,8.13
2023-11-24T17:51:42.596Z,7.90
2023-11-24T17:54:45.481Z,8.01
2023-11-24T17:57:52.062Z,7.69
2023-11-24T18:00:54.658Z,7.14
2023-11-24T18:03:56.952Z,7.39
2023-11-24T18:06:59.303Z,7.41
2023-11-24T18:10:01.594Z,7.76
2023-11-24T18:13:03.979Z,8.80
2023-11-24T18:16:07.818Z,7.70
2023-11-24T18:19:10.180Z,8.12
2023-11-24T18:22:13.621Z,7.81
2023-11-24T18:25:15.816Z,7.65
2023-11-24T18:28:17.959Z,8.55
2023-11-24T18:31:20.912Z,8.31
2023-11-24T18:34:39.580Z,7.95
2023-11-24T18:37:43.184Z,7.87
2023-11-24T18:40:45.339Z,7.20
2023-11-24T18:43:47.546Z,7.51
2023-11-24T18:46:49.689Z,8.16
2023-11-24T18:49:51.840Z,7.20
2023-11-24T18:52:53.986Z,7.68
2023-11-24T18:55:56.134Z,8.01
2023-11-24T18:58:58.324Z,6.67
2023-11-24T19:02:00.473Z,7.73
2023-11-24T19:05:02.776Z,7.85
2023-11-24T19:08:05.875Z,7.90
2023-11-24T19:11:10.075Z,7.77
2023-11-24T19:14:12.169Z,6.93
2023-11-24T19:17:15.867Z,8.23
2023-11-24T19:20:21.172Z,7.51
2023-11-24T19:23:23.502Z,7.20
2023-11-24T19:26:25.673Z,7.24
2023-11-24T19:29:27.838Z,8.09
2023-11-24T19:32:30.091Z,8.31
2023-11-24T19:35:32.344Z,8.86
2023-11-24T19:38:34.474Z,9.07
2023-11-24T19:41:36.696Z,8.52
2023-11-24T19:44:39.113Z,8.27
2023-11-24T19:47:41.359Z,8.95
2023-11-24T19:50:43.493Z,8.30
2023-11-24T19:53:48.727Z,8.68
2023-11-24T19:56:52.270Z,7.94
2023-11-24T19:59:56.525Z,8.92
2023-11-24T20:02:58.936Z,7.35
2023-11-24T20:06:01.328Z,8.58
2023-11-24T20:09:04.991Z,7.64
2023-11-24T20:12:10.560Z,8.18
2023-11-24T20:15:12.945Z,7.89
2023-11-24T20:18:15.181Z,8.28
2023-11-24T20:21:17.425Z,8.24
2023-11-24T20:24:19.604Z,7.74
2023-11-24T20:27:22.728Z,7.18
2023-11-24T20:30:24.909Z,7.53
2023-11-24T20:33:27.061Z,7.39
2023-11-24T20:36:29.544Z,7.97
2023-11-24T20:39:31.632Z,8.25
2023-11-24T20:42:33.778Z,7.60
2023-11-24T20:45:36.757Z,7.58
2023-11-24T20:48:39.547Z,7.13
2023-11-24T20:51:41.722Z,7.08
2023-11-24T20:54:45.287Z,7.05
2023-11-24T20:57:48.100Z,7.40
2023-11-24T21:00:50.349Z,7.12
2023-11-24T21:03:52.585Z,7.46
2023-11-24T21:06:55.351Z,8.66
2023-11-24T21:09:57.638Z,7.68
2023-11-24T21:12:59.851Z,7.74
2023-11-24T21:16:02.077Z,8.14
2023-11-24T21:19:05.814Z,7.13
2023-11-24T21:22:07.953Z,7.79
2023-11-24T21:25:10.252Z,7.74
2023-11-24T21:28:12.401Z,7.78
2023-11-24T21:31:18.248Z,7.64
2023-11-24T21:34:20.502Z,7.68
2023-11-24T21:37:27.893Z,7.90
2023-11-24T21:40:30.084Z,7.41
2023-11-24T21:43:32.364Z,7.49
2023-11-24T21:46:34.837Z,8.03
2023-11-24T21:49:38.441Z,7.91
2023-11-24T21:52:40.786Z,8.32
2023-11-24T21:55:44.281Z,8.07
2023-11-24T21:58:46.608Z,8.41
2023-11-24T22:01:49.263Z,8.22
2023-11-24T22:04:51.634Z,7.54
2023-11-24T22:07:53.806Z,7.32
2023-11-24T22:10:55.935Z,7.04
2023-11-24T22:13:58.152Z,7.64
2023-11-24T22:17:00.987Z,7.82
2023-11-24T22:20:12.263Z,6.96
2023-11-24T22:23:14.598Z,7.19
2023-11-24T22:26:20.083Z,7.35
2023-11-24T22:29:24.600Z,6.78
2023-11-24T22:32:28.507Z,6.97
2023-11-24T22:35:30.625Z,6.39
2023-11-24T22:38:32.856Z,6.13
2023-11-24T22:41:34.942Z,6.48
2023-11-24T22:44:37.048Z,6.32
2023-11-24T22:47:39.930Z,6.58
2023-11-24T22:50:42.308Z,6.77
2023-11-24T22:53:44.392Z,6.94
2023-11-24T22:56:46.713Z,6.48
2023-11-24T22:59:51.962Z,6.68
2023-11-24T23:02:54.354Z,6.06
2023-11-24T23:05:56.507Z,6.35
2023-11-24T23:08:58.756Z,6.15
2023-11-24T23:12:00.837Z,6.08
2023-11-24T23:15:02.923Z,5.93
2023-11-24T23:18:05.772Z,5.38
2023-11-24T23:21:08.467Z,5.78
2023-11-24T23:24:12.250Z,5.49
2023-11-24T23:27:14.452Z,6.29
2023-11-24T23:30:16.716Z,5.65
2023-11-24T23:33:19.121Z,5.73
2023-11-24T23:36:21.349Z,5.44
2023-11-24T23:39:25.009Z,4.97
2023-11-24T23:42:28.314Z,4.88
2023-11-24T23:45:30.483Z,6.07
2023-11-24T23:48:33.485Z,5.54
2023-11-24T23:51:36.178Z,5.11
2023-11-24T23:54:38.298Z,4.71
2023-11-24T23:57:40.424Z,5.07
